Monday, October 23, 2017, 1:08 PM EDT
Back to Local

KMGW, Morgantown Muni-hart Field

Location: Morgantown, WV, United States Lat: 39.65
Local Time: 1:08 PM EDT (17:08 GMT) Lon: -79.917
Time Zone: US/Eastern Elev: 1246 ft

Show me the last for .
Show Coded

Time T Td Feel RH Dir Speed Gust Alt SLP Vis Weather Sky Remarks
2017-10-23 12:53 67 58 - 72 110° 12 - 29.94 29.93 7 -RA FEW065 SCT080 OVC100 1-hr Precip Total: 0.01"
2017-10-23 11:53 69 59 - 70 130° 8 - 29.99 29.97 10 FEW036 SCT075 OVC110 1-hr Precip Total: 0.01"
2017-10-23 10:53 69 56 - 62 130° 6 - 30.03 30.01 10 BKN090 6-hr Precip Total (11am): 0.00"
2017-10-23 09:53 66 55 - 67 140° 8 - 30.05 30.03 10 CLR None
2017-10-23 08:53 63 53 - 70 110° 6 - 30.08 30.06 10 SCT090 BKN120 1-hr Precip Total: Trace
2017-10-23 07:53 62 52 - 69 110° 7 - 30.08 30.06 5 -RA FEW049 SCT070 OVC095 1-hr Precip Total: 0.02"
6-hr Precip Total (8am): 0.02"
24-hr Precip Total (8am): 0.02"
6-hr Min Temp (8am): 59.0°F
6-hr Max Temp (8am): 62.1°F
2017-10-23 06:53 61 49 - 64 110° 5 - 30.11 30.09 10 CLR None
2017-10-23 05:53 61 49 - 64 150° 3 - 30.12 30.09 10 CLR None
2017-10-23 04:53 61 48 - 62 110° 7 - 30.13 30.11 10 CLR None
2017-10-23 03:53 61 48 - 62 110° 7 - 30.14 30.12 10 CLR None
2017-10-23 02:53 61 48 - 62 160° 8 - 30.16 30.14 10 CLR None
2017-10-23 01:53 61 46 - 57 100° 6 - 30.18 30.16 10 CLR 6-hr Min Temp (2am): 59.0°F
6-hr Max Temp (2am): 69.1°F
2017-10-23 00:53 61 47 - 59 140° 7 - 30.19 30.17 10 CLR 24-hr Min Temp (1am): 48.9°F
24-hr Max Temp (1am): 80.1°F
2017-10-22 23:53 62 47 - 57 140° 6 - 30.21 30.19 10 CLR None
2017-10-22 22:53 64 49 - 57 170° 6 - 30.21 30.19 10 CLR None
2017-10-22 21:53 65 48 - 54 160° 7 - 30.21 30.20 10 CLR None
2017-10-22 20:53 68 47 - 46 150° 6 - 30.21 30.19 10 CLR None
2017-10-22 19:53 69 50 - 50 150° 7 - 30.20 30.20 10 CLR 6-hr Min Temp (8pm): 69.1°F
6-hr Max Temp (8pm): 80.1°F
2017-10-22 18:53 73 49 76 42 130° 9 - 30.19 30.18 10 CLR None
2017-10-22 17:53 75 48 - 38 130° 7 - 30.19 30.18 10 CLR None
2017-10-22 16:53 79 46 - 31 160° 6 - 30.20 30.18 10 CLR None
2017-10-22 15:53 78 48 - 34 160° 6 - 30.21 30.19 10 CLR None
2017-10-22 14:53 78 46 - 32 - Calm - 30.23 30.21 10 CLR None
2017-10-22 13:53 77 45 - 32 240° 3 - 30.25 30.24 10 CLR 6-hr Min Temp (2pm): 50.0°F
6-hr Max Temp (2pm): 78.1°F

Support USWX by starting your Amazon purchase here.